Time;durP1;ratioP1;P1;durP2;ratioP2;P2;SDS_P1;SDS_P2;PMS_P1;PMS_P2;Temp;Humidity;BMP_temperature;BMP_pressure;BME280_temperature;BME280_humidity;BME280_pressure;Samples;Min_cycle;Max_cycle;Signal;HPM_P1;HPM_P2
2021/01/20 00:01:13;;;;;;;23.57;9.20;;;4.00;65.10;;;4.20;58.00;97082.63;5084782;28;20355;-49
2021/01/20 00:03:41;;;;;;;10.03;3.80;;;4.00;65.20;;;4.21;57.97;97074.59;5084470;28;20060;-46
2021/01/20 00:06:08;;;;;;;4.97;1.73;;;4.00;65.30;;;4.23;57.98;97080.53;5084064;28;20047;-48
2021/01/20 00:08:36;;;;;;;7.20;3.43;;;4.00;64.60;;;4.23;57.81;97074.44;5084458;28;20039;-46
2021/01/20 00:11:03;;;;;;;6.97;3.30;;;4.00;65.20;;;4.24;57.87;97074.28;5084416;28;20048;-46
2021/01/20 00:13:30;;;;;;;1.47;0.97;;;4.00;65.20;;;4.24;58.02;97070.84;5084321;28;20048;-47
2021/01/20 00:15:58;;;;;;;6.10;2.93;;;4.10;65.30;;;4.26;58.18;97072.34;5083911;28;20044;-45
2021/01/20 00:18:25;;;;;;;5.57;3.13;;;4.00;65.40;;;4.27;57.89;97068.75;5084354;28;20044;-49
2021/01/20 00:20:53;;;;;;;4.43;2.67;;;4.00;65.30;;;4.29;57.81;97071.28;5084087;28;20052;-46
2021/01/20 00:23:20;;;;;;;5.17;3.07;;;4.10;65.40;;;4.29;58.21;97066.81;5084166;28;20050;-48
2021/01/20 00:25:47;;;;;;;6.77;5.70;;;4.00;65.30;;;4.31;58.03;97064.06;5083710;28;20056;-46
2021/01/20 00:28:14;;;;;;;6.37;4.43;;;4.00;65.30;;;4.32;57.97;97068.34;5084174;28;20044;-46
2021/01/20 00:30:42;;;;;;;4.97;3.67;;;4.10;65.20;;;4.31;58.03;97062.25;5083442;28;20048;-46
2021/01/20 00:33:09;;;;;;;7.03;4.03;;;4.10;65.60;;;4.32;57.85;97058.66;5084027;28;20044;-49
2021/01/20 00:35:37;;;;;;;4.37;2.90;;;4.10;65.50;;;4.33;58.43;97062.13;5083576;28;20036;-45
2021/01/20 00:38:04;;;;;;;2.10;1.40;;;4.10;65.60;;;4.31;58.22;97064.88;5083875;28;20232;-47
2021/01/20 00:40:31;;;;;;;2.83;2.20;;;4.10;65.80;;;4.32;58.38;97071.84;5083123;28;20344;-46
2021/01/20 00:42:59;;;;;;;2.27;1.60;;;4.00;65.80;;;4.30;58.36;97068.50;5082824;28;20439;-46
2021/01/20 00:45:26;;;;;;;3.00;1.70;;;4.00;66.00;;;4.27;58.28;97063.50;5083296;28;20222;-48
2021/01/20 00:47:54;;;;;;;2.57;1.40;;;4.00;66.20;;;4.29;58.36;97066.00;5083731;28;20051;-48
2021/01/20 00:50:21;;;;;;;2.70;1.40;;;4.00;66.90;;;4.29;58.20;97063.38;5049267;28;20049;-47
2021/01/20 00:52:49;;;;;;;1.90;1.10;;;4.00;65.90;;;4.29;58.10;97058.91;5083649;28;20052;-46
2021/01/20 00:55:16;;;;;;;2.00;1.10;;;4.00;65.90;;;4.29;58.65;97058.09;5064848;28;20058;-48
2021/01/20 00:57:48;;;;;;;2.30;1.23;;;4.00;66.80;;;4.28;57.91;97051.97;5083357;28;20048;-48
2021/01/20 01:00:17;;;;;;;1.77;1.10;;;4.00;65.90;;;4.26;58.23;97048.63;5083516;28;20056;-48
2021/01/20 01:02:46;;;;;;;2.10;1.30;;;4.00;66.00;;;4.28;58.10;97046.69;5049499;28;20244;-48
2021/01/20 01:05:16;;;;;;;2.00;1.20;;;4.00;65.90;;;4.28;58.26;97044.06;5064230;28;20218;-47
2021/01/20 01:07:47;;;;;;;1.90;1.00;;;4.00;65.90;;;4.29;58.30;97047.56;5065229;28;20055;-46
2021/01/20 01:10:15;;;;;;;1.60;0.90;;;4.00;65.90;;;4.27;58.20;97042.41;5083290;28;20044;-48
2021/01/20 01:13:06;;;;;;;2.53;1.27;;;4.00;66.70;;;4.25;58.03;97047.00;5068379;28;20245;-47
2021/01/20 01:15:39;;;;;;;1.77;1.17;;;3.90;66.00;;;4.23;58.26;97041.03;5064412;28;20055;-47
2021/01/20 01:18:08;;;;;;;1.87;1.10;;;3.90;65.90;;;4.22;58.32;97033.25;5048910;28;20278;-49
2021/01/20 01:20:38;;;;;;;2.53;1.23;;;3.90;66.00;;;4.22;58.16;97034.06;5083096;28;20046;-47
2021/01/20 01:23:06;;;;;;;1.47;1.00;;;3.90;66.10;;;4.21;58.06;97024.50;5064683;28;20045;-46
2021/01/20 01:25:34;;;;;;;1.63;0.93;;;3.90;66.20;;;4.19;58.41;97021.19;5064159;28;20046;-48
2021/01/20 01:28:14;;;;;;;0.97;0.77;;;3.90;66.00;;;4.21;58.33;97023.69;5081322;28;20056;-47
2021/01/20 01:31:06;;;;;;;2.57;1.10;;;4.00;65.90;;;4.21;58.36;97023.69;5064725;28;20044;-47
2021/01/20 01:33:34;;;;;;;1.83;1.10;;;3.90;66.30;;;4.21;58.10;97016.63;5064549;28;20044;-49
2021/01/20 01:36:03;;;;;;;1.37;0.80;;;4.00;66.20;;;4.21;58.36;97021.06;5064043;28;20059;-47
2021/01/20 01:38:30;;;;;;;0.80;0.73;;;3.90;67.20;;;4.19;58.31;97015.91;5064824;28;20056;-47
2021/01/20 01:41:02;;;;;;;1.73;1.00;;;3.90;66.30;;;4.20;58.55;97009.66;5064481;28;20051;-45
2021/01/20 01:43:39;;;;;;;2.40;1.30;;;3.90;66.20;;;4.20;58.16;97006.22;5049368;28;20051;-46
2021/01/20 01:46:20;;;;;;;2.47;1.23;;;3.90;66.30;;;4.20;58.36;97006.22;5080838;28;20052;-47
2021/01/20 01:49:07;;;;;;;1.83;0.90;;;3.90;66.40;;;4.19;58.65;97013.28;5064571;28;20048;-50
2021/01/20 01:51:35;;;;;;;2.27;1.20;;;3.90;66.60;;;4.19;58.64;97012.44;5064572;28;20045;-49
2021/01/20 01:54:27;;;;;;;1.57;0.97;;;3.80;66.50;;;4.18;58.63;97008.16;5053462;28;20053;-47
2021/01/20 01:56:59;;;;;;;1.47;1.00;;;3.90;66.70;;;4.17;58.29;97007.31;5063781;28;20245;-49
2021/01/20 01:59:29;;;;;;;1.00;0.80;;;3.90;66.80;;;4.18;58.60;97008.16;5046200;28;20256;-47
2021/01/20 02:01:57;;;;;;;1.53;0.80;;;3.90;66.80;;;4.20;58.40;97006.22;5063892;28;20053;-47
2021/01/20 02:04:34;;;;;;;1.13;0.70;;;3.90;67.00;;;4.20;58.60;97006.22;5063852;28;20222;-47
2021/01/20 02:07:10;;;;;;;1.10;0.97;;;3.90;66.80;;;4.19;58.57;97008.00;5063659;28;20051;-45
2021/01/20 02:09:39;;;;;;;0.80;0.70;;;3.90;66.80;;;4.20;58.35;97007.03;5063668;28;20362;-46
2021/01/20 02:12:26;;;;;;;1.70;0.80;;;4.00;66.70;;;4.24;58.41;97002.31;5063636;28;20251;-48
2021/01/20 02:15:10;;;;;;;1.77;0.80;;;4.00;66.10;;;4.27;58.88;97004.69;5063463;28;20055;-47
2021/01/20 02:17:45;;;;;;;0.70;0.70;;;4.10;66.20;;;4.31;58.88;96998.19;5047953;28;20048;-46
2021/01/20 02:20:39;;;;;;;1.17;0.70;;;4.10;66.30;;;4.32;58.55;97000.69;5064172;28;20054;-47
2021/01/20 02:23:15;;;;;;;1.23;0.50;;;4.10;66.30;;;4.34;58.97;97001.38;5063634;28;20244;-46
2021/01/20 02:26:27;;;;;;;1.13;0.80;;;4.10;66.30;;;4.36;58.59;97009.13;5066408;28;20046;-48
2021/01/20 02:29:42;;;;;;;1.10;0.80;;;4.20;66.20;;;4.40;58.52;97007.91;5071285;28;20049;-46
2021/01/20 02:32:45;;;;;;;1.00;0.77;;;4.20;66.30;;;4.41;59.18;97006.91;5047898;28;20056;-48
2021/01/20 02:35:16;;;;;;;2.08;0.73;;;4.20;66.40;;;4.43;58.67;97004.97;5047264;28;20352;-46
2021/01/20 02:37:45;;;;;;;0.60;0.60;;;4.20;66.40;;;4.45;58.52;97007.47;5081862;28;20353;-48
2021/01/20 02:40:33;;;;;;;1.40;0.70;;;4.20;66.30;;;4.46;58.82;97009.97;5066387;28;20058;-46
2021/01/20 02:43:10;;;;;;;1.63;0.90;;;4.20;66.10;;;4.48;58.50;97001.94;5063607;28;20048;-49
2021/01/20 02:45:56;;;;;;;1.50;0.80;;;4.30;67.20;;;4.49;58.61;96999.13;5085014;28;20382;-46
2021/01/20 02:48:24;;;;;;;3.20;1.17;;;4.30;65.90;;;4.52;58.58;96993.59;5063704;28;20062;-48
2021/01/20 02:50:53;;;;;;;1.93;0.73;;;4.40;65.90;;;4.56;58.60;96993.34;5063671;28;20048;-46
2021/01/20 02:53:23;;;;;;;1.07;0.73;;;4.40;65.80;;;4.58;58.79;96991.38;5063275;28;20071;-47
2021/01/20 02:56:06;;;;;;;1.30;0.80;;;4.40;65.80;;;4.61;58.46;96993.72;5070125;28;20047;-47
2021/01/20 02:58:54;;;;;;;0.63;0.40;;;4.40;65.50;;;4.64;58.71;96993.47;5069251;28;20051;-46
2021/01/20 03:01:48;;;;;;;1.50;0.70;;;4.50;65.60;;;4.66;58.20;96994.97;5066365;28;20055;-50
2021/01/20 03:04:18;;;;;;;1.03;0.70;;;4.50;65.60;;;4.67;58.73;96995.81;5069386;28;20036;-49
2021/01/20 03:06:46;;;;;;;1.43;1.10;;;4.50;65.70;;;4.67;58.71;96988.75;5067746;28;20036;-47
2021/01/20 03:09:15;;;;;;;0.97;0.77;;;4.50;65.80;;;4.67;58.43;96994.03;5085686;28;20062;-47
2021/01/20 03:11:52;;;;;;;1.00;0.80;;;4.50;65.90;;;4.67;58.33;96988.75;5087574;28;20033;-47
2021/01/20 03:14:23;;;;;;;1.40;0.80;;;4.50;65.50;;;4.66;58.49;96991.50;5085991;28;20059;-48
2021/01/20 03:16:50;;;;;;;2.33;1.10;;;4.40;66.00;;;4.63;58.41;96987.34;5084816;28;20056;-47
2021/01/20 03:19:17;;;;;;;1.07;0.90;;;4.40;66.20;;;4.62;58.67;96990.97;5085580;28;20060;-48
2021/01/20 03:21:44;;;;;;;1.43;0.73;;;4.40;66.20;;;4.60;58.19;96985.00;5085584;28;20059;-47
2021/01/20 03:24:12;;;;;;;1.40;0.70;;;4.30;66.20;;;4.58;58.12;96983.47;5085497;28;20052;-46
2021/01/20 03:26:39;;;;;;;1.13;0.83;;;4.30;66.10;;;4.55;58.67;96979.28;5084889;28;20337;-47
2021/01/20 03:29:06;;;;;;;1.87;0.83;;;4.20;66.20;;;4.53;58.36;96982.06;5085379;28;20489;-47
2021/01/20 03:31:34;;;;;;;0.60;0.50;;;4.20;65.60;;;4.53;58.31;96974.16;5085397;28;20059;-48
2021/01/20 03:34:01;;;;;;;0.90;0.70;;;4.20;66.20;;;4.53;58.19;96979.44;5085308;28;20351;-47
2021/01/20 03:36:28;;;;;;;0.63;0.60;;;4.20;66.00;;;4.54;58.30;96973.19;5067100;28;20337;-48
2021/01/20 03:38:56;;;;;;;0.90;0.40;;;4.30;66.00;;;4.55;58.32;96974.03;5085244;28;20040;-46
2021/01/20 03:41:23;;;;;;;1.60;0.73;;;4.30;65.90;;;4.56;57.98;96970.44;5085083;28;20036;-48
2021/01/20 03:43:50;;;;;;;1.27;0.73;;;4.30;65.90;;;4.56;58.22;96961.69;5085177;28;20043;-47
2021/01/20 03:46:18;;;;;;;1.07;0.60;;;4.30;65.80;;;4.56;58.06;96967.78;5084593;28;20326;-45
2021/01/20 03:48:45;;;;;;;1.57;0.80;;;4.30;65.70;;;4.57;58.00;96960.72;5085057;28;20072;-46
2021/01/20 03:51:12;;;;;;;0.97;0.70;;;4.30;65.50;;;4.57;58.37;96951.00;5084885;28;20040;-48
2021/01/20 03:53:40;;;;;;;2.10;0.70;;;4.30;65.70;;;4.57;57.76;96947.53;5084917;28;20056;-48
2021/01/20 03:56:07;;;;;;;0.97;0.80;;;4.40;65.40;;;4.60;57.92;96944.63;5084969;28;20282;-46
2021/01/20 03:58:34;;;;;;;1.00;0.70;;;4.40;65.40;;;4.61;57.86;96946.28;5084920;28;20041;-46
2021/01/20 04:01:01;;;;;;;1.33;0.70;;;4.40;65.30;;;4.63;58.46;96939.88;5085134;28;20060;-48
2021/01/20 04:03:29;;;;;;;1.30;0.70;;;4.40;65.30;;;4.65;57.97;96937.97;5083206;28;20048;-47
2021/01/20 04:06:10;;;;;;;0.73;0.53;;;4.40;65.20;;;4.67;57.79;96938.66;5065676;28;20051;-48
2021/01/20 04:08:37;;;;;;;0.80;0.67;;;4.50;65.30;;;4.70;58.00;96942.78;5084583;28;20348;-49
2021/01/20 04:11:05;;;;;;;1.43;0.70;;;4.50;65.20;;;4.72;57.59;96943.47;5083930;28;20366;-46
2021/01/20 04:13:35;;;;;;;0.80;0.60;;;4.50;65.30;;;4.74;57.79;96946.81;5083963;28;20054;-47
2021/01/20 04:16:03;;;;;;;1.43;0.93;;;4.60;65.20;;;4.76;58.13;96941.41;5083677;28;20052;-48
2021/01/20 04:18:30;;;;;;;1.07;0.67;;;4.60;65.10;;;4.77;58.32;96945.69;5083867;28;20044;-46
2021/01/20 04:20:59;;;;;;;1.50;0.93;;;4.60;65.20;;;4.77;57.56;96933.34;5084225;28;20048;-47
2021/01/20 04:23:26;;;;;;;1.73;1.10;;;4.60;65.10;;;4.78;58.40;96934.19;5084150;28;20060;-49
2021/01/20 04:25:54;;;;;;;1.83;0.67;;;4.60;65.20;;;4.77;58.46;96929.88;5083464;28;20052;-46
2021/01/20 04:28:21;;;;;;;2.70;0.90;;;4.60;65.30;;;4.77;57.68;96930.72;5083211;28;20328;-48
2021/01/20 04:30:49;;;;;;;1.10;0.80;;;4.60;65.10;;;4.78;57.93;96924.44;5066374;28;20054;-46
2021/01/20 04:33:16;;;;;;;0.87;0.60;;;4.60;65.10;;;4.79;57.85;96923.50;5084037;28;20240;-48
2021/01/20 04:35:43;;;;;;;1.93;1.00;;;4.60;65.00;;;4.79;58.38;96920.00;5083603;28;20045;-46
2021/01/20 04:38:11;;;;;;;1.10;0.87;;;4.60;65.10;;;4.77;57.53;96914.88;5084099;28;20040;-48
2021/01/20 04:40:38;;;;;;;1.70;1.00;;;4.60;65.20;;;4.78;57.55;96916.53;5083965;28;20048;-47
2021/01/20 04:43:05;;;;;;;1.27;0.80;;;4.60;65.10;;;4.78;57.79;96913.06;5083164;28;20058;-46
2021/01/20 04:45:33;;;;;;;0.97;0.80;;;4.50;65.10;;;4.77;57.73;96917.53;5083270;28;20037;-46
2021/01/20 04:48:02;;;;;;;1.50;0.90;;;4.50;65.00;;;4.76;57.50;96909.75;5083775;28;20163;-47
2021/01/20 04:50:31;;;;;;;0.97;0.80;;;4.50;64.90;;;4.74;57.46;96912.53;5083810;28;20044;-46
2021/01/20 04:53:05;;;;;;;1.80;1.10;;;4.50;64.80;;;4.73;56.95;96910.88;5066164;28;20256;-47
2021/01/20 04:55:34;;;;;;;1.70;1.20;;;4.50;64.90;;;4.71;57.34;96904.88;5082678;28;20063;-48
2021/01/20 04:58:02;;;;;;;1.83;1.03;;;4.50;64.80;;;4.72;57.68;96907.38;5065940;28;20049;-46
2021/01/20 05:00:30;;;;;;;3.23;2.03;;;4.50;65.00;;;4.72;57.86;96903.94;5080571;28;20052;-46
2021/01/20 05:02:59;;;;;;;3.73;1.70;;;4.40;64.80;;;4.72;57.11;96910.03;5065899;28;20059;-47
2021/01/20 05:05:27;;;;;;;1.53;1.23;;;4.50;64.90;;;4.70;57.69;96914.63;5064585;28;20044;-45
2021/01/20 05:07:54;;;;;;;6.13;3.50;;;4.50;65.00;;;4.71;57.37;96912.81;5083368;28;20048;-47
2021/01/20 05:10:21;;;;;;;3.57;1.93;;;4.50;64.90;;;4.70;58.09;96908.50;5064679;28;20040;-46
2021/01/20 05:12:49;;;;;;;3.63;1.57;;;4.40;65.00;;;4.68;57.51;96902.56;5083155;28;20048;-46
2021/01/20 05:15:17;;;;;;;7.10;3.63;;;4.40;65.00;;;4.68;57.50;96906.00;5082633;28;20048;-47
2021/01/20 05:17:58;;;;;;;7.40;3.57;;;4.40;65.10;;;4.70;57.91;96911.16;5083178;28;20058;-46
2021/01/20 05:20:35;;;;;;;3.20;2.03;;;4.50;64.50;;;4.69;57.68;96912.09;5083163;28;20044;-50
2021/01/20 05:23:09;;;;;;;9.37;4.47;;;4.40;64.80;;;4.68;57.54;96903.38;5083005;28;20075;-46
2021/01/20 05:25:43;;;;;;;;;;;4.40;65.00;;;4.66;57.91;96897.41;5082979;28;20235;-49
2021/01/20 05:28:25;;;;;;;14.65;7.43;;;4.40;64.20;;;4.65;57.84;96903.69;5082081;28;19932;-46
2021/01/20 05:30:58;;;;;;;12.20;6.60;;;4.40;65.20;;;4.66;57.38;96896.59;5095301;22;20046;-42
2021/01/20 05:33:36;;;;;;;21.27;13.25;;;4.40;65.40;;;4.66;57.97;96897.41;5091960;28;20055;-43
2021/01/20 05:36:14;;;;;;;13.90;8.77;;;4.40;65.30;;;4.64;57.24;96891.47;5102609;28;20089;-44
2021/01/20 05:38:49;;;;;;;22.80;14.10;;;4.40;65.20;;;4.65;57.66;96892.28;5084591;28;20052;-42
2021/01/20 05:41:24;;;;;;;7.57;6.23;;;4.40;65.10;;;4.66;57.77;96888.69;5103125;28;20040;-41
2021/01/20 05:43:54;;;;;;;4.27;3.83;;;4.40;64.70;;;4.69;57.74;96891.88;5102975;28;20358;-42
2021/01/20 05:46:34;;;;;;;5.70;3.13;;;4.50;64.90;;;4.70;57.24;96890.88;5101824;28;20242;-42
2021/01/20 05:49:03;;;;;;;5.03;3.33;;;4.50;64.20;;;4.73;57.58;96895.88;5102953;28;20040;-45
2021/01/20 05:51:44;;;;;;;5.60;4.10;;;4.50;64.50;;;4.78;56.90;96889.34;5102136;28;20052;-42
2021/01/20 05:54:11;;;;;;;2.80;1.63;;;4.60;63.40;;;4.81;56.91;96894.31;5102807;28;20054;-42
2021/01/20 05:56:38;;;;;;;1.97;1.60;;;4.60;63.50;;;4.86;57.28;96892.09;5101948;28;20055;-42
2021/01/20 05:59:09;;;;;;;3.67;2.03;;;4.70;63.50;;;4.88;57.37;96885.69;5102694;28;20048;-43
2021/01/20 06:01:38;;;;;;;1.73;1.30;;;4.80;63.30;;;4.92;57.06;96884.44;5066099;28;20043;-42
2021/01/20 06:04:06;;;;;;;1.20;1.10;;;4.80;63.00;;;4.97;56.95;96889.28;5084269;28;20221;-43
2021/01/20 06:06:35;;;;;;;3.70;1.70;;;4.90;62.80;;;5.02;56.18;96887.06;5101387;28;20040;-41
2021/01/20 06:09:03;;;;;;;2.27;1.27;;;5.00;62.80;;;5.06;55.86;96884.94;5084268;28;20055;-41
2021/01/20 06:11:30;;;;;;;2.17;1.37;;;5.00;62.50;;;5.08;56.73;96883.81;5102385;28;20354;-43
2021/01/20 06:14:00;;;;;;;1.93;1.00;;;5.00;62.50;;;5.11;55.86;96893.25;5102502;28;20066;-42
2021/01/20 06:16:29;;;;;;;1.77;1.27;;;5.00;62.40;;;5.12;56.10;96879.91;5084411;28;20052;-41
2021/01/20 06:19:08;;;;;;;3.13;1.20;;;5.10;62.40;;;5.14;55.83;96882.41;5102417;28;20216;-42
2021/01/20 06:21:36;;;;;;;1.97;0.97;;;5.00;60.90;;;5.15;56.36;96878.78;5102362;28;20055;-42
2021/01/20 06:24:15;;;;;;;1.87;1.20;;;5.00;62.30;;;5.18;56.57;96875.03;5102347;28;20052;-42
2021/01/20 06:26:58;;;;;;;1.27;0.90;;;5.10;61.50;;;5.20;55.91;96871.28;5083639;28;20385;-44
2021/01/20 06:29:29;;;;;;;1.25;0.98;;;5.10;61.30;;;5.23;56.17;96876.25;5085348;28;20231;-43
2021/01/20 06:31:58;;;;;;;1.53;1.00;;;5.10;62.10;;;5.24;55.38;96870.00;5084016;28;20070;-42
2021/01/20 06:34:25;;;;;;;1.50;0.77;;;5.20;62.10;;;5.27;55.60;96876.78;5101958;28;20043;-43
2021/01/20 06:36:53;;;;;;;1.40;0.90;;;5.20;61.90;;;5.30;55.54;96876.50;5083724;28;20352;-41
2021/01/20 06:39:26;;;;;;;2.77;1.77;;;5.30;61.60;;;5.35;55.50;96873.41;5101535;28;20044;-43
2021/01/20 06:41:58;;;;;;;1.90;1.10;;;5.30;60.90;;;5.36;55.48;96873.25;5102026;28;20048;-44
2021/01/20 06:44:26;;;;;;;3.00;1.30;;;5.30;61.40;;;5.38;55.57;96881.03;5102035;28;20109;-44
2021/01/20 06:46:56;;;;;;;2.70;1.50;;;5.30;61.80;;;5.40;54.83;96884.38;5101540;28;20363;-42
2021/01/20 06:49:35;;;;;;;2.20;1.30;;;5.40;61.50;;;5.40;55.56;96887.00;5102384;28;20062;-43
2021/01/20 06:52:16;;;;;;;1.60;1.10;;;5.40;61.10;;;5.42;54.01;96874.50;5083183;28;20052;-44
2021/01/20 06:54:46;;;;;;;2.07;1.40;;;5.40;60.50;;;5.40;55.83;96882.53;5083671;28;20044;-42
2021/01/20 06:57:32;;;;;;;2.13;1.60;;;5.40;61.30;;;5.42;55.90;96888.50;5101833;28;20047;-44
2021/01/20 07:00:17;;;;;;;27.07;14.13;;;5.40;60.70;;;5.43;55.39;96881.41;5101751;28;20050;-44
2021/01/20 07:03:03;;;;;;;34.63;15.37;;;5.40;61.10;;;5.44;55.92;96877.81;5089806;28;20044;-42
2021/01/20 07:05:36;;;;;;;21.77;10.23;;;5.40;60.90;;;5.44;55.86;96881.28;5080239;28;20044;-44
2021/01/20 07:08:08;;;;;;;22.75;9.88;;;5.40;61.70;;;5.45;55.80;96880.31;5081423;28;20036;-42
2021/01/20 07:11:03;;;;;;;6.07;3.17;;;5.40;61.60;;;5.47;55.03;96880.16;5080837;28;20048;-43
2021/01/20 07:13:34;;;;;;;;;;;5.40;59.70;;;5.44;54.93;96878.63;5079535;28;20062;-42
2021/01/20 07:16:06;;;;;;;7.63;3.50;;;5.40;59.30;;;5.47;55.09;96877.53;5081069;28;19938;-42
2021/01/20 07:18:33;;;;;;;29.50;11.93;;;5.30;61.50;;;5.48;55.50;96874.72;5081820;28;20344;-42
2021/01/20 07:21:04;;;;;;;39.47;16.03;;;5.30;61.70;;;5.49;55.88;96870.28;5080844;28;20051;-42
2021/01/20 07:23:33;;;;;;;46.80;19.57;;;5.40;61.60;;;5.50;55.24;96866.66;5080560;28;20044;-44
2021/01/20 07:26:03;;;;;;;49.13;20.13;;;5.40;61.40;;;5.51;55.48;96861.22;5080903;28;20044;-41
2021/01/20 07:28:32;;;;;;;29.17;13.10;;;5.40;61.20;;;5.52;55.07;96857.63;5081489;28;20213;-42
2021/01/20 07:31:16;;;;;;;48.50;19.43;;;5.40;61.20;;;5.53;55.42;96861.91;5080417;28;20058;-42
2021/01/20 07:33:51;;;;;;;;;;;5.50;60.10;;;5.52;55.29;96854.13;5081819;28;20055;-41
2021/01/20 07:36:21;;;;;;;9.43;5.50;;;5.40;59.40;;;5.51;55.46;96852.50;5080807;28;19924;-42
2021/01/20 07:38:49;;;;;;;11.80;6.80;;;5.40;61.40;;;5.51;54.76;96857.75;5081458;28;20049;-41
2021/01/20 07:41:20;;;;;;;42.50;22.80;;;5.40;61.20;;;5.52;54.98;96854.13;5081239;28;20044;-41
2021/01/20 07:44:07;;;;;;;28.10;14.30;;;5.40;60.40;;;5.51;54.70;96850.66;5081316;28;20044;-42
2021/01/20 07:46:34;;;;;;;14.80;7.60;;;5.40;60.00;;;5.52;55.08;96854.97;5080158;28;20059;-43
2021/01/20 07:49:14;;;;;;;14.50;8.27;;;5.40;61.30;;;5.53;54.46;96855.81;5081238;28;20048;-41
2021/01/20 07:51:42;;;;;;;21.67;13.00;;;5.40;60.40;;;5.52;55.25;96857.63;5081067;28;20240;-44
2021/01/20 07:54:09;;;;;;;23.77;12.23;;;5.40;61.40;;;5.52;55.15;96847.06;5084852;28;20044;-42
2021/01/20 07:56:36;;;;;;;20.63;9.87;;;5.40;61.20;;;5.52;55.39;96851.50;5084256;28;20049;-44
2021/01/20 07:59:19;;;;;;;8.63;4.33;;;5.40;61.50;;;5.53;55.07;96839.97;5066559;28;20062;-43
2021/01/20 08:01:46;;;;;;;6.80;4.23;;;5.40;60.50;;;5.52;55.51;96841.78;5080926;28;20236;-42
2021/01/20 08:04:33;;;;;;;8.67;5.20;;;5.40;61.40;;;5.53;55.33;96843.44;5084704;28;20055;-43
2021/01/20 08:07:00;;;;;;;3.37;2.93;;;5.40;60.20;;;5.55;55.04;96843.28;5084136;28;20044;-41
2021/01/20 08:09:45;;;;;;;4.13;2.30;;;5.40;61.50;;;5.55;55.03;96840.66;5084133;28;20060;-41
2021/01/20 08:12:21;;;;;;;2.67;1.80;;;5.40;59.90;;;5.57;54.90;96832.56;5083474;28;20051;-41
2021/01/20 08:14:49;;;;;;;3.40;2.03;;;5.40;61.10;;;5.58;55.14;96834.22;5063956;28;20397;-43
2021/01/20 08:17:19;;;;;;;5.23;3.00;;;5.50;61.40;;;5.58;54.73;96832.41;5067979;28;20049;-43
2021/01/20 08:19:49;;;;;;;4.10;2.37;;;5.50;61.50;;;5.58;54.62;96827.13;5083564;28;20374;-44
2021/01/20 08:22:17;;;;;;;7.37;2.63;;;5.50;61.50;;;5.62;54.86;96838.22;5084207;28;20052;-43
2021/01/20 08:24:49;;;;;;;5.17;2.60;;;5.50;61.50;;;5.60;54.24;96830.44;5066131;28;20048;-42
2021/01/20 08:27:34;;;;;;;2.70;2.00;;;5.60;61.10;;;5.64;54.63;96829.19;5083943;28;20358;-43
2021/01/20 08:30:02;;;;;;;4.03;2.57;;;5.60;60.60;;;5.66;54.80;96831.66;5084223;28;20051;-41
2021/01/20 08:32:30;;;;;;;4.17;1.90;;;5.60;61.20;;;5.65;54.21;96827.38;5083795;28;20221;-42
2021/01/20 08:34:59;;;;;;;3.53;2.23;;;5.70;61.00;;;5.65;54.65;96825.56;5083460;28;20067;-42
2021/01/20 08:37:40;;;;;;;3.20;1.73;;;5.70;61.00;;;5.67;54.64;96817.50;5083599;28;20041;-41
2021/01/20 08:40:15;;;;;;;4.30;1.83;;;5.70;60.30;;;5.67;54.53;96823.59;5083970;28;20055;-41
2021/01/20 08:42:44;;;;;;;4.30;2.10;;;5.70;60.70;;;5.68;55.02;96825.25;5083401;28;20345;-41
2021/01/20 08:45:18;;;;;;;2.93;1.80;;;5.70;61.30;;;5.71;55.48;96818.84;5083328;28;20048;-42
2021/01/20 08:47:52;;;;;;;5.30;2.17;;;5.70;61.10;;;5.72;54.39;96818.69;5083204;28;20054;-43
2021/01/20 08:50:27;;;;;;;3.85;2.10;;;5.70;60.70;;;5.73;54.95;96816.88;5083702;28;20044;-41
2021/01/20 08:52:57;;;;;;;5.50;1.90;;;5.70;61.00;;;5.75;54.09;96822.00;5082995;28;20056;-41
2021/01/20 08:55:29;;;;;;;7.47;2.27;;;5.70;60.30;;;5.75;54.73;96816.72;5082988;28;20048;-41
2021/01/20 08:58:31;;;;;;;3.37;2.03;;;5.70;60.70;;;5.76;53.36;96818.38;5083666;28;20333;-42
2021/01/20 09:01:22;;;;;;;4.23;2.60;;;5.80;59.40;;;5.76;53.97;96821.03;5082291;28;20056;-42
2021/01/20 09:04:02;;;;;;;5.23;3.10;;;5.70;59.90;;;5.75;54.49;96814.09;5083233;28;20055;-41
2021/01/20 09:06:30;;;;;;;4.57;3.10;;;5.80;61.10;;;5.74;54.61;96823.84;5082838;28;20049;-42
2021/01/20 09:08:57;;;;;;;5.37;3.10;;;5.80;60.60;;;5.75;54.52;96816.72;5083312;28;20040;-42
2021/01/20 09:11:26;;;;;;;8.47;3.50;;;5.80;60.30;;;5.71;54.34;96817.03;5083033;28;20045;-41
2021/01/20 09:13:56;;;;;;;5.43;3.00;;;5.70;60.20;;;5.67;53.48;96807.75;5081959;28;20052;-42
2021/01/20 09:16:27;;;;;;;4.60;2.67;;;5.70;59.90;;;5.71;54.55;96824.13;5082585;28;20048;-41
2021/01/20 09:18:55;;;;;;;5.37;3.03;;;5.80;59.90;;;5.71;54.17;96822.31;5083234;28;20048;-42
2021/01/20 09:21:22;;;;;;;4.70;3.13;;;5.80;60.10;;;5.58;53.11;96818.38;5083010;28;20050;-42
2021/01/20 09:23:51;;;;;;;5.70;3.40;;;5.70;59.10;;;5.65;54.59;96808.88;5083056;28;20052;-42
2021/01/20 09:26:19;;;;;;;4.20;3.27;;;5.80;59.90;;;5.69;53.88;96813.69;5082505;28;20248;-41
2021/01/20 09:28:47;;;;;;;23.10;3.47;;;5.80;59.60;;;5.73;54.13;96801.84;5082957;28;20044;-41
2021/01/20 09:31:14;;;;;;;4.77;3.07;;;5.80;60.00;;;5.80;54.01;96802.09;5082817;28;20051;-41
2021/01/20 09:33:41;;;;;;;5.37;3.27;;;5.80;60.00;;;5.85;54.50;96804.28;5082259;28;20048;-41
2021/01/20 09:36:09;;;;;;;7.17;3.30;;;5.90;59.30;;;5.87;53.79;96799.66;5081554;28;20049;-41
2021/01/20 09:38:37;;;;;;;5.70;3.70;;;5.90;59.70;;;5.90;53.64;96797.53;5081781;28;20056;-42
2021/01/20 09:41:04;;;;;;;6.03;3.30;;;5.90;59.50;;;5.94;54.18;96807.81;5065328;28;20050;-41
2021/01/20 09:43:32;;;;;;;5.40;3.57;;;5.90;59.60;;;5.97;53.37;96805.75;5082669;28;20240;-41
2021/01/20 09:45:59;;;;;;;5.13;3.00;;;5.90;59.30;;;5.97;52.71;96808.38;5064607;28;20044;-41
2021/01/20 09:48:26;;;;;;;4.37;3.27;;;5.90;59.10;;;5.96;53.37;96809.34;5082431;28;20046;-42
2021/01/20 09:50:54;;;;;;;5.33;3.20;;;6.00;58.90;;;6.00;52.98;96799.31;5082614;28;20054;-41
2021/01/20 09:53:21;;;;;;;7.03;4.20;;;6.00;59.00;;;6.02;53.28;96792.88;5082383;28;20051;-42
2021/01/20 09:55:48;;;;;;;9.07;4.53;;;6.10;59.10;;;6.08;53.24;96791.44;5082117;28;20050;-42
2021/01/20 09:58:16;;;;;;;4.97;3.43;;;6.10;59.10;;;6.10;52.98;96787.66;5082247;28;20044;-41
2021/01/20 10:00:43;;;;;;;5.53;4.10;;;6.10;58.50;;;6.13;53.08;96785.69;5080750;28;20059;-42
2021/01/20 10:03:10;;;;;;;8.27;4.00;;;6.20;58.90;;;6.15;52.81;96778.47;5082174;28;20292;-42
2021/01/20 10:05:41;;;;;;;7.20;3.87;;;6.20;58.60;;;6.14;53.06;96771.50;5081844;28;20049;-42
2021/01/20 10:08:08;;;;;;;7.60;3.40;;;6.20;58.50;;;6.18;52.88;96767.56;5082105;28;20332;-43
2021/01/20 10:10:36;;;;;;;6.37;3.17;;;6.30;58.60;;;6.21;53.55;96761.97;5082325;28;20044;-42
2021/01/20 10:13:03;;;;;;;6.30;3.27;;;6.30;58.70;;;6.26;53.05;96759.66;5082090;28;20355;-41
2021/01/20 10:15:31;;;;;;;7.43;3.53;;;6.30;58.80;;;6.24;52.76;96749.28;5080752;28;20247;-41
2021/01/20 10:17:59;;;;;;;6.13;3.53;;;6.30;58.40;;;6.27;53.33;96748.13;5082155;28;20048;-42
2021/01/20 10:20:27;;;;;;;4.97;3.17;;;6.40;58.50;;;6.30;52.31;96737.22;5082003;28;20075;-42
2021/01/20 10:22:54;;;;;;;5.83;3.23;;;6.40;58.60;;;6.35;53.04;96742.06;5082120;28;20051;-41
2021/01/20 10:25:29;;;;;;;7.33;3.37;;;6.40;58.40;;;6.36;52.36;96741.06;5081165;28;20104;-43
2021/01/20 10:27:59;;;;;;;5.80;2.73;;;6.40;58.20;;;6.39;52.99;96738.13;5081926;28;20042;-42
2021/01/20 10:30:27;;;;;;;4.63;3.03;;;6.50;58.60;;;6.41;52.56;96736.97;5081651;28;20047;-42
2021/01/20 10:32:55;;;;;;;11.33;4.70;;;6.50;58.40;;;6.44;52.55;96731.38;5081967;28;20040;-41
2021/01/20 10:35:23;;;;;;;29.40;3.63;;;6.60;57.90;;;6.48;52.74;96731.88;5081411;28;20036;-42
2021/01/20 10:37:51;;;;;;;13.50;4.27;;;6.60;58.40;;;6.51;52.93;96726.28;5081246;28;20053;-42
2021/01/20 10:40:18;;;;;;;6.27;3.70;;;6.60;58.30;;;6.54;52.59;96718.03;5081168;28;20058;-42
2021/01/20 10:42:45;;;;;;;6.23;3.20;;;6.60;58.00;;;6.58;52.80;96710.63;5063251;28;20052;-41
2021/01/20 10:45:13;;;;;;;4.47;2.87;;;6.70;58.40;;;6.64;52.88;96709.97;5081333;28;20048;-42
2021/01/20 10:47:40;;;;;;;5.63;2.83;;;6.80;58.40;;;6.68;53.18;96712.13;5081673;28;20055;-42
2021/01/20 10:50:09;;;;;;;5.93;2.63;;;6.80;58.20;;;6.72;52.47;96704.72;5081675;28;20040;-42
2021/01/20 10:52:36;;;;;;;5.83;2.87;;;6.80;58.10;;;6.75;52.39;96699.09;5081599;28;20040;-41